createdAt,value
2023-03-10T00:00:54.315Z,2.41
2023-03-10T00:01:56.453Z,2.70
2023-03-10T00:02:59.796Z,2.51
2023-03-10T00:04:02.857Z,2.74
2023-03-10T00:05:07.034Z,2.50
2023-03-10T00:06:10.246Z,2.39
2023-03-10T00:07:13.407Z,2.09
2023-03-10T00:08:15.786Z,2.13
2023-03-10T00:09:18.909Z,1.71
2023-03-10T00:10:21.235Z,2.05
2023-03-10T00:11:24.357Z,2.49
2023-03-10T00:12:27.838Z,2.13
2023-03-10T00:13:31.275Z,2.03
2023-03-10T00:14:34.779Z,2.34
2023-03-10T00:15:37.915Z,2.44
2023-03-10T00:16:40.042Z,2.41
2023-03-10T00:17:43.135Z,2.64
2023-03-10T00:18:46.223Z,2.65
2023-03-10T00:19:49.371Z,2.63
2023-03-10T00:20:52.348Z,2.40
2023-03-10T00:21:55.451Z,2.60
2023-03-10T00:22:57.611Z,2.64
2023-03-10T00:24:01.745Z,2.20
2023-03-10T00:25:04.315Z,2.14
2023-03-10T00:26:07.428Z,2.42
2023-03-10T00:27:09.506Z,2.27
2023-03-10T00:28:12.597Z,2.25
2023-03-10T00:29:14.824Z,2.48
2023-03-10T00:30:19.746Z,2.35
2023-03-10T00:31:23.681Z,2.16
2023-03-10T00:32:27.027Z,2.15
2023-03-10T00:33:31.704Z,2.09
2023-03-10T00:34:34.971Z,2.11
2023-03-10T00:35:37.102Z,2.11
2023-03-10T00:36:40.712Z,2.13
2023-03-10T00:37:42.891Z,2.27
2023-03-10T00:38:48.657Z,2.24
2023-03-10T00:39:52.589Z,2.01
2023-03-10T00:41:00.400Z,1.92
2023-03-10T00:42:02.772Z,1.97
2023-03-10T00:43:05.939Z,1.95
2023-03-10T00:44:09.705Z,1.84
2023-03-10T00:45:12.997Z,1.82
2023-03-10T00:46:16.783Z,1.90
2023-03-10T00:47:19.927Z,1.97
2023-03-10T00:48:22.940Z,2.14
2023-03-10T00:49:26.093Z,1.97
2023-03-10T00:50:28.217Z,1.84
2023-03-10T00:51:31.440Z,1.85
2023-03-10T00:52:34.343Z,2.33
2023-03-10T00:53:39.262Z,1.65
2023-03-10T00:54:41.790Z,1.61
2023-03-10T00:55:45.379Z,1.75
2023-03-10T00:56:47.553Z,1.95
2023-03-10T00:57:50.692Z,1.81
2023-03-10T00:58:55.179Z,1.99
2023-03-10T00:59:58.279Z,1.74
2023-03-10T01:01:03.042Z,1.44
2023-03-10T01:02:07.606Z,1.86
2023-03-10T01:03:09.715Z,2.32
2023-03-10T01:04:15.665Z,1.71
2023-03-10T01:05:17.853Z,1.65
2023-03-10T01:06:21.998Z,1.80
2023-03-10T01:07:24.187Z,1.78
2023-03-10T01:08:27.255Z,1.60
2023-03-10T01:09:29.459Z,1.69
2023-03-10T01:10:32.663Z,1.61
2023-03-10T01:11:35.726Z,1.57
2023-03-10T01:12:38.814Z,1.71
2023-03-10T01:13:41.215Z,1.68
2023-03-10T01:14:44.334Z,1.48
2023-03-10T01:15:48.643Z,1.72
2023-03-10T01:16:51.861Z,1.91
2023-03-10T01:17:55.322Z,1.64
2023-03-10T01:18:59.763Z,1.88
2023-03-10T01:20:01.965Z,1.57
2023-03-10T01:21:05.720Z,1.71
2023-03-10T01:22:07.863Z,1.93
2023-03-10T01:23:16.279Z,1.69
2023-03-10T01:24:18.380Z,1.94
2023-03-10T01:25:21.412Z,1.53
2023-03-10T01:26:23.500Z,1.54
2023-03-10T01:27:26.582Z,1.38
2023-03-10T01:28:28.759Z,1.67
2023-03-10T01:29:31.885Z,1.51
2023-03-10T01:30:34.021Z,1.56
2023-03-10T01:31:37.302Z,1.50
2023-03-10T01:32:40.351Z,1.35
2023-03-10T01:33:45.993Z,1.50
2023-03-10T01:34:48.093Z,1.47
2023-03-10T01:35:51.204Z,1.38
2023-03-10T01:36:54.381Z,1.31
2023-03-10T01:37:56.538Z,1.33
2023-03-10T01:39:00.607Z,1.46
2023-03-10T01:40:05.278Z,1.53
2023-03-10T01:41:08.537Z,1.68
2023-03-10T01:42:10.700Z,1.34
2023-03-10T01:43:26.723Z,1.25
2023-03-10T01:44:29.864Z,1.42
2023-03-10T01:46:05.546Z,1.42
2023-03-10T01:47:08.672Z,1.47
2023-03-10T01:48:11.133Z,1.29
2023-03-10T01:49:36.166Z,1.34
2023-03-10T01:50:39.680Z,1.26
2023-03-10T01:51:48.076Z,1.52
2023-03-10T01:52:58.496Z,1.16
2023-03-10T01:54:05.058Z,1.37
2023-03-10T01:55:15.836Z,1.22
2023-03-10T01:56:18.114Z,1.22
2023-03-10T01:57:25.783Z,1.23
2023-03-10T01:58:36.676Z,1.17
2023-03-10T01:59:40.605Z,1.00
2023-03-10T02:00:43.975Z,1.06
2023-03-10T02:01:47.653Z,1.11
2023-03-10T02:03:01.095Z,1.19
2023-03-10T02:04:09.076Z,1.16
2023-03-10T02:05:15.788Z,0.97
2023-03-10T02:06:21.684Z,1.14
2023-03-10T02:07:28.958Z,1.27
2023-03-10T02:08:44.561Z,1.33
2023-03-10T02:09:51.593Z,1.29
2023-03-10T02:10:55.526Z,1.18
2023-03-10T02:12:00.864Z,1.24
2023-03-10T02:13:03.064Z,1.21
2023-03-10T02:14:06.661Z,1.26
2023-03-10T02:15:09.750Z,1.09
2023-03-10T02:16:13.367Z,1.13
2023-03-10T02:17:21.248Z,1.16
2023-03-10T02:18:24.331Z,1.01
2023-03-10T02:19:48.385Z,1.03
2023-03-10T02:21:04.962Z,1.03
2023-03-10T02:22:10.838Z,1.00
2023-03-10T02:23:31.427Z,0.95
2023-03-10T02:24:44.337Z,1.12
2023-03-10T02:25:54.029Z,1.03
2023-03-10T02:27:03.820Z,1.25
2023-03-10T02:28:07.489Z,1.23
2023-03-10T02:29:18.984Z,1.02
2023-03-10T02:30:27.536Z,1.10
2023-03-10T02:31:31.664Z,0.92
2023-03-10T02:32:39.428Z,1.00
2023-03-10T02:33:43.978Z,1.11
2023-03-10T02:34:47.200Z,1.10
2023-03-10T02:35:49.525Z,0.89
2023-03-10T02:36:52.715Z,0.93
2023-03-10T02:37:55.841Z,1.14
2023-03-10T02:38:57.955Z,1.06
2023-03-10T02:40:01.786Z,0.99
2023-03-10T02:41:18.255Z,0.83
2023-03-10T02:42:22.534Z,0.94
2023-03-10T02:43:30.919Z,0.86
2023-03-10T02:44:33.834Z,0.82
2023-03-10T02:45:40.602Z,0.94
2023-03-10T02:46:43.390Z,0.93
2023-03-10T02:47:46.509Z,1.04
2023-03-10T02:48:48.960Z,0.89
2023-03-10T02:49:52.107Z,0.96
2023-03-10T02:50:55.106Z,0.72
2023-03-10T02:52:01.452Z,0.82
2023-03-10T02:53:10.442Z,1.00
2023-03-10T02:54:15.291Z,0.93
2023-03-10T02:55:18.533Z,0.80
2023-03-10T02:56:21.630Z,0.90
2023-03-10T02:57:23.807Z,0.95
2023-03-10T02:58:31.635Z,0.93
2023-03-10T02:59:34.577Z,0.84
2023-03-10T03:00:39.171Z,0.81
2023-03-10T03:01:41.290Z,0.73
2023-03-10T03:02:44.376Z,0.73
2023-03-10T03:03:47.261Z,0.88
2023-03-10T03:04:50.400Z,0.77
2023-03-10T03:05:52.649Z,0.84
2023-03-10T03:06:55.964Z,0.69
2023-03-10T03:07:58.030Z,0.70
2023-03-10T03:09:01.286Z,0.69
2023-03-10T03:10:03.869Z,0.79
2023-03-10T03:11:07.492Z,0.66
2023-03-10T03:12:10.187Z,0.93
2023-03-10T03:13:14.008Z,0.83
2023-03-10T03:14:19.646Z,0.80
2023-03-10T03:15:22.129Z,0.73
2023-03-10T03:16:25.369Z,0.75
2023-03-10T03:17:28.708Z,1.01
2023-03-10T03:18:31.872Z,0.82
2023-03-10T03:19:33.961Z,0.77
2023-03-10T03:20:40.219Z,0.77
2023-03-10T03:21:42.280Z,0.77
2023-03-10T03:22:46.760Z,0.80
2023-03-10T03:23:49.083Z,0.85
2023-03-10T03:24:52.146Z,0.83
2023-03-10T03:25:54.291Z,0.67
2023-03-10T03:26:57.398Z,0.81
2023-03-10T03:27:59.602Z,0.95
2023-03-10T03:29:02.713Z,1.07
2023-03-10T03:30:11.263Z,0.80
2023-03-10T03:31:19.980Z,0.81
2023-03-10T03:32:22.095Z,0.63
2023-03-10T03:33:25.290Z,0.65
2023-03-10T03:34:27.499Z,0.77
2023-03-10T03:35:34.036Z,0.80
2023-03-10T03:36:37.392Z,0.78
2023-03-10T03:37:40.571Z,0.72
2023-03-10T03:38:42.906Z,0.92
2023-03-10T03:39:46.094Z,0.92
2023-03-10T03:40:48.440Z,0.75
2023-03-10T03:41:53.308Z,0.77
2023-03-10T03:42:56.060Z,0.77
2023-03-10T03:43:59.226Z,0.94
2023-03-10T03:45:01.338Z,0.83
2023-03-10T03:46:06.610Z,0.77
2023-03-10T03:47:10.406Z,0.73
2023-03-10T03:48:14.729Z,0.78
2023-03-10T03:49:16.834Z,0.73
2023-03-10T03:50:22.286Z,0.69
2023-03-10T03:51:24.788Z,0.81
2023-03-10T03:52:27.969Z,0.84
2023-03-10T03:53:31.618Z,0.99
2023-03-10T03:54:33.892Z,1.04
2023-03-10T03:55:37.030Z,1.04
2023-03-10T03:56:39.396Z,0.99
2023-03-10T03:57:44.914Z,0.99
2023-03-10T03:58:47.130Z,0.80
2023-03-10T03:59:50.229Z,0.97
2023-03-10T04:00:52.798Z,0.69
2023-03-10T04:01:57.364Z,0.89
2023-03-10T04:02:59.514Z,0.91
2023-03-10T04:04:02.672Z,0.86
2023-03-10T04:05:05.816Z,0.89
2023-03-10T04:06:09.350Z,0.92
2023-03-10T04:07:11.587Z,1.02
2023-03-10T04:08:14.908Z,0.85
2023-03-10T04:09:18.171Z,0.81
2023-03-10T04:10:24.252Z,0.96
2023-03-10T04:11:26.670Z,0.91
2023-03-10T04:12:29.815Z,0.86
2023-03-10T04:13:31.990Z,0.84
2023-03-10T04:14:35.221Z,0.92
2023-03-10T04:15:37.391Z,0.87
2023-03-10T04:16:40.509Z,0.75
2023-03-10T04:17:44.073Z,0.80
2023-03-10T04:18:47.195Z,1.06
2023-03-10T04:20:04.611Z,0.80
2023-03-10T04:21:09.622Z,1.10
2023-03-10T04:22:11.755Z,0.82
2023-03-10T04:23:15.731Z,0.75
2023-03-10T04:24:17.880Z,0.91
2023-03-10T04:25:21.182Z,1.09
2023-03-10T04:26:23.358Z,0.95
2023-03-10T04:27:26.654Z,0.97
2023-03-10T04:28:29.030Z,1.07
2023-03-10T04:29:32.416Z,0.92
2023-03-10T04:30:34.626Z,0.98
2023-03-10T04:31:38.079Z,1.04
2023-03-10T04:32:40.441Z,0.86
2023-03-10T04:33:44.954Z,1.04
2023-03-10T04:34:47.085Z,1.03
2023-03-10T04:35:51.522Z,2.01
2023-03-10T04:36:53.840Z,1.28
2023-03-10T04:37:56.979Z,0.93
2023-03-10T04:39:00.408Z,0.85
2023-03-10T04:40:03.532Z,1.08
2023-03-10T04:41:06.872Z,0.94
2023-03-10T04:42:09.458Z,0.94
2023-03-10T04:43:12.644Z,0.95
2023-03-10T04:44:29.946Z,0.90
2023-03-10T04:45:33.892Z,0.96
2023-03-10T04:46:37.078Z,0.83
2023-03-10T04:47:40.489Z,0.92
2023-03-10T04:48:44.249Z,0.76
2023-03-10T04:49:47.356Z,0.82
2023-03-10T04:50:55.500Z,1.10
2023-03-10T04:51:59.295Z,0.82
2023-03-10T04:53:01.397Z,0.97
2023-03-10T04:54:04.667Z,1.23
2023-03-10T04:55:07.870Z,1.16
2023-03-10T04:56:12.279Z,0.90
2023-03-10T04:57:14.387Z,0.88
2023-03-10T04:58:17.491Z,0.83
2023-03-10T04:59:21.558Z,0.89
2023-03-10T05:00:25.108Z,0.83
2023-03-10T05:01:32.370Z,1.01
2023-03-10T05:02:35.957Z,0.82
2023-03-10T05:03:38.251Z,0.97
2023-03-10T05:04:42.913Z,1.03
2023-03-10T05:05:45.047Z,1.01
2023-03-10T05:06:52.123Z,0.79
2023-03-10T05:07:54.257Z,0.85
2023-03-10T05:08:57.460Z,0.95
2023-03-10T05:09:59.648Z,1.00
2023-03-10T05:11:06.859Z,0.80
2023-03-10T05:12:11.339Z,0.69
2023-03-10T05:13:14.103Z,0.95
2023-03-10T05:14:17.948Z,0.87
2023-03-10T05:15:20.134Z,0.90
2023-03-10T05:16:24.341Z,1.04
2023-03-10T05:17:28.409Z,0.92
2023-03-10T05:18:31.978Z,0.94
2023-03-10T05:19:34.285Z,0.92
2023-03-10T05:20:39.337Z,0.90
2023-03-10T05:21:41.530Z,0.97
2023-03-10T05:22:45.009Z,0.88
2023-03-10T05:23:47.113Z,0.75
2023-03-10T05:24:50.372Z,0.71
2023-03-10T05:25:52.673Z,0.65
2023-03-10T05:26:55.763Z,0.90
2023-03-10T05:27:57.975Z,0.74
2023-03-10T05:29:01.043Z,0.86
2023-03-10T05:30:05.068Z,0.85
2023-03-10T05:31:13.042Z,0.92
2023-03-10T05:32:15.324Z,0.87
2023-03-10T05:33:18.835Z,0.80
2023-03-10T05:34:20.931Z,1.03
2023-03-10T05:35:24.060Z,0.82
2023-03-10T05:36:27.775Z,0.86
2023-03-10T05:37:31.293Z,0.99
2023-03-10T05:38:33.708Z,0.94
2023-03-10T05:39:36.857Z,0.82
2023-03-10T05:40:40.442Z,0.82
2023-03-10T05:41:43.600Z,1.09
2023-03-10T05:42:46.411Z,0.99
2023-03-10T05:43:49.566Z,1.00
2023-03-10T05:44:51.700Z,0.98
2023-03-10T05:45:58.452Z,0.94
2023-03-10T05:47:00.690Z,0.94
2023-03-10T05:48:04.392Z,0.97
2023-03-10T05:49:06.540Z,1.07
2023-03-10T05:50:11.151Z,1.03
2023-03-10T05:51:13.750Z,0.84
2023-03-10T05:52:19.054Z,1.18
2023-03-10T05:53:21.170Z,0.99
2023-03-10T05:54:24.423Z,0.94
2023-03-10T05:55:28.666Z,1.06
2023-03-10T05:56:31.863Z,1.17
2023-03-10T05:57:34.154Z,1.20
2023-03-10T05:58:37.729Z,1.11
2023-03-10T05:59:41.703Z,1.09
2023-03-10T06:00:44.051Z,0.87
2023-03-10T06:01:47.301Z,0.93
2023-03-10T06:02:49.592Z,0.96
2023-03-10T06:03:52.806Z,1.05
2023-03-10T06:04:55.031Z,1.04
2023-03-10T06:05:58.396Z,1.17
2023-03-10T06:07:01.316Z,1.03
2023-03-10T06:08:07.138Z,1.24
2023-03-10T06:09:09.266Z,0.94
2023-03-10T06:10:12.673Z,0.81
2023-03-10T06:11:14.853Z,0.93
2023-03-10T06:12:18.111Z,0.74
2023-03-10T06:13:21.187Z,0.82
2023-03-10T06:14:24.734Z,0.68
2023-03-10T06:15:26.982Z,0.77
2023-03-10T06:16:30.204Z,0.84
2023-03-10T06:17:32.410Z,0.97
2023-03-10T06:18:36.139Z,0.84
2023-03-10T06:19:38.453Z,0.82
2023-03-10T06:20:41.544Z,0.64
2023-03-10T06:21:44.002Z,0.76
2023-03-10T06:22:47.089Z,0.83
2023-03-10T06:23:50.688Z,0.93
2023-03-10T06:24:53.996Z,1.04
2023-03-10T06:25:58.567Z,0.78
2023-03-10T06:27:01.783Z,0.72
2023-03-10T06:28:04.274Z,0.93
2023-03-10T06:29:07.831Z,1.22
2023-03-10T06:30:11.316Z,1.11
2023-03-10T06:31:17.207Z,0.92
2023-03-10T06:32:19.541Z,0.91
2023-03-10T06:33:22.704Z,0.98
2023-03-10T06:34:25.859Z,0.94
2023-03-10T06:35:28.629Z,0.99
2023-03-10T06:36:32.686Z,1.19
2023-03-10T06:37:35.824Z,0.89
2023-03-10T06:38:38.467Z,0.93
2023-03-10T06:39:43.018Z,1.09
2023-03-10T06:40:45.491Z,1.15
2023-03-10T06:41:48.656Z,1.03
2023-03-10T06:42:51.789Z,1.09
2023-03-10T06:43:54.380Z,1.18
2023-03-10T06:44:57.569Z,0.96
2023-03-10T06:46:03.530Z,1.08
2023-03-10T06:47:06.066Z,1.00
2023-03-10T06:48:09.378Z,1.07
2023-03-10T06:49:11.601Z,0.94
2023-03-10T06:50:15.394Z,0.96
2023-03-10T06:51:20.320Z,0.94
2023-03-10T06:52:23.495Z,0.99
2023-03-10T06:53:27.271Z,0.99
2023-03-10T06:54:29.569Z,0.93
2023-03-10T06:55:34.068Z,0.88
2023-03-10T06:56:36.305Z,1.02
2023-03-10T06:57:39.508Z,1.01
2023-03-10T06:58:42.877Z,0.81
2023-03-10T06:59:45.973Z,0.68
2023-03-10T07:00:48.070Z,0.74
2023-03-10T07:01:51.514Z,0.84
2023-03-10T07:02:53.979Z,1.14
2023-03-10T07:03:58.120Z,1.22
2023-03-10T07:05:00.341Z,0.91
2023-03-10T07:06:03.505Z,1.00
2023-03-10T07:07:06.905Z,0.93
2023-03-10T07:08:09.050Z,0.92
2023-03-10T07:09:12.254Z,0.94
2023-03-10T07:10:15.981Z,1.10
2023-03-10T07:11:20.582Z,0.93
2023-03-10T07:12:23.125Z,0.88
2023-03-10T07:13:26.472Z,0.95
2023-03-10T07:14:29.606Z,0.97
2023-03-10T07:15:31.749Z,1.07
2023-03-10T07:16:35.017Z,1.12
2023-03-10T07:17:37.547Z,1.01
2023-03-10T07:18:40.716Z,1.13
2023-03-10T07:19:44.133Z,1.09
2023-03-10T07:20:47.946Z,1.06
2023-03-10T07:21:51.175Z,1.12
2023-03-10T07:22:54.384Z,1.03
2023-03-10T07:23:57.535Z,1.00
2023-03-10T07:24:59.898Z,1.02
2023-03-10T07:26:05.722Z,0.91
2023-03-10T07:27:09.341Z,1.09
2023-03-10T07:28:12.553Z,1.08
2023-03-10T07:29:14.858Z,1.17
2023-03-10T07:30:18.712Z,1.11
2023-03-10T07:31:21.953Z,1.31
2023-03-10T07:32:24.212Z,0.91
2023-03-10T07:33:27.780Z,0.88
2023-03-10T07:34:30.930Z,0.86
2023-03-10T07:35:36.695Z,1.02
2023-03-10T07:36:39.206Z,1.18
2023-03-10T07:37:42.291Z,1.19
2023-03-10T07:38:44.808Z,1.13
2023-03-10T07:39:47.963Z,1.06
2023-03-10T07:40:50.190Z,1.01
2023-03-10T07:41:53.260Z,1.00
2023-03-10T07:42:56.789Z,1.59
2023-03-10T07:43:59.993Z,1.76
2023-03-10T07:45:02.636Z,2.04
2023-03-10T07:46:07.101Z,1.92
2023-03-10T07:47:09.284Z,1.97
2023-03-10T07:48:12.482Z,1.81
2023-03-10T07:49:15.585Z,1.82
2023-03-10T07:50:18.158Z,1.52
2023-03-10T07:51:21.611Z,1.39
2023-03-10T07:52:24.747Z,1.58
2023-03-10T07:53:27.781Z,1.33
2023-03-10T07:54:30.890Z,1.10
2023-03-10T07:55:33.049Z,1.22
2023-03-10T07:56:36.235Z,1.59
2023-03-10T07:57:39.418Z,1.52
2023-03-10T07:58:43.976Z,1.25
2023-03-10T07:59:46.317Z,1.48
2023-03-10T08:00:56.299Z,1.50
2023-03-10T08:01:59.453Z,1.10
2023-03-10T08:03:01.605Z,1.14
2023-03-10T08:04:05.317Z,1.26
2023-03-10T08:05:09.819Z,1.21
2023-03-10T08:06:19.136Z,1.45
2023-03-10T08:07:22.641Z,1.75
2023-03-10T08:08:25.813Z,1.82
2023-03-10T08:09:29.414Z,1.31
2023-03-10T08:10:31.537Z,1.45
2023-03-10T08:11:34.652Z,1.64
2023-03-10T08:12:37.179Z,1.39
2023-03-10T08:13:40.671Z,1.27
2023-03-10T08:14:45.179Z,1.31
2023-03-10T08:15:47.360Z,1.50
2023-03-10T08:16:50.629Z,1.38
2023-03-10T08:17:52.869Z,1.35
2023-03-10T08:18:56.058Z,1.60
2023-03-10T08:19:58.831Z,1.43
2023-03-10T08:21:05.569Z,0.99
2023-03-10T08:22:10.216Z,1.69
2023-03-10T08:23:12.343Z,1.98
2023-03-10T08:24:15.605Z,1.82
2023-03-10T08:25:18.048Z,1.78
2023-03-10T08:26:21.520Z,1.25
2023-03-10T08:27:23.914Z,1.02
2023-03-10T08:28:28.833Z,1.12
2023-03-10T08:29:31.965Z,1.44
2023-03-10T08:30:36.713Z,1.38
2023-03-10T08:31:38.944Z,1.41
2023-03-10T08:32:42.189Z,1.47
2023-03-10T08:33:45.258Z,1.25
2023-03-10T08:34:48.725Z,1.34
2023-03-10T08:35:50.822Z,1.14
2023-03-10T08:36:54.115Z,1.09
2023-03-10T08:37:56.299Z,1.25
2023-03-10T08:39:01.487Z,1.23
2023-03-10T08:40:08.125Z,1.24
2023-03-10T08:41:14.211Z,1.46
2023-03-10T08:42:17.364Z,1.15
2023-03-10T08:43:19.494Z,1.39
2023-03-10T08:44:23.254Z,1.43
2023-03-10T08:45:27.283Z,2.06
2023-03-10T08:46:32.033Z,1.75
2023-03-10T08:47:35.317Z,1.57
2023-03-10T08:48:38.791Z,1.47
2023-03-10T08:49:45.737Z,1.61
2023-03-10T08:50:49.154Z,1.04
2023-03-10T08:51:52.425Z,1.59
2023-03-10T08:52:54.639Z,1.63
2023-03-10T08:53:58.096Z,1.56
2023-03-10T08:55:00.267Z,1.18
2023-03-10T08:56:03.485Z,1.18
2023-03-10T08:57:06.656Z,1.37
2023-03-10T08:58:08.881Z,1.18
2023-03-10T08:59:12.044Z,1.25
2023-03-10T09:00:17.300Z,1.09
2023-03-10T09:01:20.635Z,0.90
2023-03-10T09:02:24.286Z,0.95
2023-03-10T09:03:31.371Z,1.10
2023-03-10T09:04:34.779Z,1.09
2023-03-10T09:05:36.975Z,0.93
2023-03-10T09:06:41.234Z,0.96
2023-03-10T09:07:43.362Z,0.97
2023-03-10T09:08:48.285Z,1.35
2023-03-10T09:09:51.541Z,2.24
2023-03-10T09:10:53.707Z,1.48
2023-03-10T09:11:56.875Z,1.37
2023-03-10T09:13:12.890Z,1.34
2023-03-10T09:14:17.633Z,1.32
2023-03-10T09:15:20.060Z,1.26
2023-03-10T09:16:23.327Z,1.03
2023-03-10T09:17:27.842Z,0.97
2023-03-10T09:18:30.194Z,0.82
2023-03-10T09:19:33.450Z,0.90
2023-03-10T09:20:36.366Z,1.24
2023-03-10T09:21:40.058Z,1.02
2023-03-10T09:22:43.717Z,1.34
2023-03-10T09:23:48.360Z,1.15
2023-03-10T09:24:51.541Z,1.42
2023-03-10T09:25:53.924Z,1.44
2023-03-10T09:26:57.248Z,1.87
2023-03-10T09:27:59.430Z,1.54
2023-03-10T09:29:03.298Z,1.34
2023-03-10T09:30:07.135Z,1.57
2023-03-10T09:31:14.733Z,1.46
2023-03-10T09:32:18.193Z,1.59
2023-03-10T09:33:23.876Z,1.50
2023-03-10T09:34:27.773Z,1.45
2023-03-10T09:35:30.002Z,1.62
2023-03-10T09:36:33.743Z,1.56
2023-03-10T09:37:35.978Z,1.40
2023-03-10T09:38:39.165Z,1.33
2023-03-10T09:39:42.638Z,1.14
2023-03-10T09:40:51.692Z,1.31
2023-03-10T09:42:38.366Z,1.55
2023-03-10T09:43:50.736Z,1.42
2023-03-10T09:45:09.209Z,1.58
2023-03-10T09:46:23.854Z,1.53
2023-03-10T09:47:40.543Z,1.56
2023-03-10T09:48:54.262Z,1.71
2023-03-10T09:50:18.643Z,1.53
2023-03-10T09:51:24.311Z,1.64
2023-03-10T09:52:33.712Z,1.87
2023-03-10T09:53:55.894Z,1.61
2023-03-10T09:55:05.378Z,1.27
2023-03-10T09:56:14.320Z,1.54
2023-03-10T09:57:22.040Z,1.58
2023-03-10T09:58:33.562Z,1.51
2023-03-10T09:59:39.211Z,1.26
2023-03-10T10:00:46.028Z,1.27
2023-03-10T10:01:51.126Z,1.45
2023-03-10T10:03:03.611Z,1.31
2023-03-10T10:04:12.727Z,1.19
2023-03-10T10:05:25.009Z,1.20
2023-03-10T10:06:33.567Z,1.16
2023-03-10T10:07:42.832Z,1.35
2023-03-10T10:09:03.615Z,1.28
2023-03-10T10:10:17.336Z,1.23
2023-03-10T10:11:19.712Z,1.54
2023-03-10T10:12:26.548Z,1.55
2023-03-10T10:13:31.572Z,1.36
2023-03-10T10:14:36.827Z,1.33
2023-03-10T10:15:45.385Z,1.26
2023-03-10T10:17:00.396Z,1.15
2023-03-10T10:18:20.311Z,1.27
2023-03-10T10:19:27.966Z,1.21
2023-03-10T10:20:40.259Z,1.39
2023-03-10T10:21:51.597Z,1.28
2023-03-10T10:22:54.752Z,1.11
2023-03-10T10:23:59.375Z,1.18
2023-03-10T10:25:19.047Z,1.21
2023-03-10T10:26:26.460Z,1.42
2023-03-10T10:27:31.595Z,1.35
2023-03-10T10:28:44.481Z,1.68
2023-03-10T10:29:47.601Z,2.12
2023-03-10T10:30:50.850Z,2.12
2023-03-10T10:32:07.697Z,1.55
2023-03-10T10:33:12.708Z,1.77
2023-03-10T10:34:21.868Z,1.92
2023-03-10T10:35:27.831Z,1.71
2023-03-10T10:36:32.760Z,1.31
2023-03-10T10:37:39.450Z,1.38
2023-03-10T10:38:50.446Z,1.66
2023-03-10T10:39:57.267Z,2.26
2023-03-10T10:41:07.120Z,1.69
2023-03-10T10:42:14.881Z,2.17
2023-03-10T10:43:20.656Z,1.34
2023-03-10T10:44:23.837Z,1.32
2023-03-10T10:45:30.228Z,1.30
2023-03-10T10:46:33.418Z,1.21
2023-03-10T10:47:47.065Z,1.21
2023-03-10T10:48:52.312Z,1.54
2023-03-10T10:49:56.748Z,1.61
2023-03-10T10:51:01.367Z,2.33
2023-03-10T10:52:06.731Z,2.57
2023-03-10T10:53:20.891Z,1.91
2023-03-10T10:54:28.786Z,2.24
2023-03-10T10:55:34.787Z,2.12
2023-03-10T10:56:37.993Z,2.05
2023-03-10T10:57:46.030Z,5.55
2023-03-10T10:59:07.347Z,5.18
2023-03-10T11:00:27.235Z,1.96
2023-03-10T11:01:48.385Z,4.20
2023-03-10T11:02:51.644Z,2.00
2023-03-10T11:04:06.482Z,1.65
2023-03-10T11:05:17.715Z,1.55
2023-03-10T11:06:29.115Z,1.43
2023-03-10T11:07:32.327Z,1.49
2023-03-10T11:08:40.957Z,1.53
2023-03-10T11:09:44.270Z,1.70
2023-03-10T11:10:55.082Z,1.74
2023-03-10T11:12:10.219Z,1.38
2023-03-10T11:13:19.310Z,1.61
2023-03-10T11:14:38.855Z,1.38
2023-03-10T11:15:54.382Z,1.48
2023-03-10T11:17:06.975Z,1.94
2023-03-10T11:18:19.560Z,1.20
2023-03-10T11:19:32.155Z,0.86
2023-03-10T11:20:49.733Z,1.09
2023-03-10T11:22:00.759Z,0.87
2023-03-10T11:23:16.108Z,0.72
2023-03-10T11:24:27.396Z,0.68
2023-03-10T11:25:39.366Z,0.73
2023-03-10T11:26:53.539Z,0.49
2023-03-10T11:28:14.477Z,0.53
2023-03-10T11:29:33.257Z,0.54
2023-03-10T11:30:39.506Z,0.61
2023-03-10T11:31:52.119Z,0.59
2023-03-10T11:33:07.465Z,0.49
2023-03-10T11:34:20.585Z,0.46
2023-03-10T11:35:29.668Z,0.66
2023-03-10T11:36:55.358Z,0.57
2023-03-10T11:38:15.772Z,0.74
2023-03-10T11:39:32.874Z,0.61
2023-03-10T11:40:47.725Z,0.67
2023-03-10T11:42:00.599Z,0.48
2023-03-10T11:43:15.125Z,0.63
2023-03-10T11:44:28.401Z,0.64
2023-03-10T11:45:38.999Z,0.81
2023-03-10T11:46:50.970Z,0.92
2023-03-10T11:48:08.131Z,0.90
2023-03-10T11:49:15.757Z,0.89
2023-03-10T11:50:33.121Z,0.93
2023-03-10T11:51:42.408Z,1.00
2023-03-10T11:52:47.737Z,1.58
2023-03-10T11:53:55.410Z,1.63
2023-03-10T11:55:06.675Z,1.67
2023-03-10T11:56:14.364Z,1.72
2023-03-10T11:57:21.492Z,1.36
2023-03-10T11:58:31.988Z,1.65
2023-03-10T11:59:47.688Z,1.53
2023-03-10T12:00:54.771Z,1.57
2023-03-10T12:02:04.238Z,1.28
2023-03-10T12:03:19.794Z,1.37
2023-03-10T12:04:31.570Z,1.29
2023-03-10T12:05:45.295Z,1.11
2023-03-10T12:06:56.231Z,1.30
2023-03-10T12:08:04.786Z,1.33
2023-03-10T12:09:21.577Z,1.15
2023-03-10T12:10:24.153Z,0.81
2023-03-10T12:11:30.134Z,0.94
2023-03-10T12:12:34.581Z,1.09
2023-03-10T12:13:55.457Z,1.57
2023-03-10T12:15:01.991Z,1.38
2023-03-10T12:16:07.796Z,0.99
2023-03-10T12:17:15.607Z,1.44
2023-03-10T12:18:18.443Z,1.29
2023-03-10T12:19:21.619Z,1.30
2023-03-10T12:20:27.200Z,1.05
2023-03-10T12:21:32.190Z,1.06
2023-03-10T12:22:39.210Z,1.01
2023-03-10T12:23:43.899Z,0.91
2023-03-10T12:24:48.855Z,1.08
2023-03-10T12:25:51.064Z,1.13
2023-03-10T12:27:03.551Z,1.06
2023-03-10T12:28:13.008Z,1.49
2023-03-10T12:29:36.205Z,0.99
2023-03-10T12:30:46.664Z,1.21
2023-03-10T12:31:52.344Z,1.18
2023-03-10T12:32:55.812Z,1.20
2023-03-10T12:34:15.453Z,1.04
2023-03-10T12:35:48.083Z,1.03
2023-03-10T12:36:54.454Z,1.49
2023-03-10T12:38:42.710Z,1.95
2023-03-10T12:39:46.190Z,1.49
2023-03-10T12:40:52.077Z,1.46
2023-03-10T12:41:56.718Z,0.95
2023-03-10T12:42:58.927Z,1.09
2023-03-10T12:44:03.382Z,1.21
2023-03-10T12:45:21.449Z,0.91
2023-03-10T12:46:38.499Z,1.10
2023-03-10T12:47:54.132Z,1.07
2023-03-10T12:49:12.962Z,1.13
2023-03-10T12:50:42.117Z,1.06
2023-03-10T12:51:51.196Z,1.22
2023-03-10T12:53:00.516Z,1.48
2023-03-10T12:54:24.249Z,1.00
2023-03-10T12:55:28.806Z,1.19
2023-03-10T12:56:39.692Z,0.99
2023-03-10T12:57:59.143Z,1.30
2023-03-10T12:59:13.662Z,1.34
2023-03-10T13:00:29.746Z,1.46
2023-03-10T13:01:43.299Z,1.28
2023-03-10T13:02:55.685Z,1.22
2023-03-10T13:03:59.644Z,1.09
2023-03-10T13:05:06.306Z,1.48
2023-03-10T13:06:22.402Z,1.47
2023-03-10T13:07:25.602Z,1.51
2023-03-10T13:08:42.208Z,1.33
2023-03-10T13:09:50.711Z,1.23
2023-03-10T13:10:56.346Z,1.43
2023-03-10T13:12:07.116Z,1.61
2023-03-10T13:13:16.265Z,2.12
2023-03-10T13:14:21.792Z,2.69
2023-03-10T13:15:29.786Z,3.96
2023-03-10T13:16:36.641Z,3.45
2023-03-10T13:17:38.773Z,2.17
2023-03-10T13:18:49.738Z,1.76
2023-03-10T13:20:05.265Z,1.62
2023-03-10T13:21:08.497Z,1.22
2023-03-10T13:22:17.243Z,1.04
2023-03-10T13:23:23.956Z,1.07
2023-03-10T13:24:29.405Z,1.04
2023-03-10T13:25:36.677Z,1.11
2023-03-10T13:26:38.976Z,1.08
2023-03-10T13:27:43.549Z,1.04
2023-03-10T13:28:52.189Z,1.08
2023-03-10T13:29:57.655Z,1.17
2023-03-10T13:31:20.734Z,0.97
2023-03-10T13:32:23.343Z,0.86
2023-03-10T13:33:27.339Z,1.05
2023-03-10T13:34:33.122Z,1.25
2023-03-10T13:35:37.270Z,1.15
2023-03-10T13:36:41.592Z,1.09
2023-03-10T13:37:45.253Z,0.97
2023-03-10T13:38:47.550Z,0.89
2023-03-10T13:39:50.871Z,1.07
2023-03-10T13:41:02.287Z,1.02
2023-03-10T13:42:21.371Z,0.91
2023-03-10T13:43:38.809Z,0.79
2023-03-10T13:44:44.442Z,0.86
2023-03-10T13:45:47.699Z,0.88
2023-03-10T13:46:53.800Z,1.01
2023-03-10T13:47:56.383Z,1.00
2023-03-10T13:49:04.032Z,0.98
2023-03-10T13:50:16.150Z,1.09
2023-03-10T13:51:22.119Z,0.96
2023-03-10T13:52:27.322Z,0.85
2023-03-10T13:53:29.594Z,0.71
2023-03-10T13:54:35.193Z,1.27
2023-03-10T13:55:41.135Z,1.00
2023-03-10T13:56:46.003Z,0.96
2023-03-10T13:57:51.641Z,0.89
2023-03-10T13:58:59.286Z,0.72
2023-03-10T14:00:05.085Z,0.93
2023-03-10T14:01:08.501Z,0.87
2023-03-10T14:02:19.275Z,1.05
2023-03-10T14:03:21.957Z,1.08
2023-03-10T14:04:44.290Z,0.88
2023-03-10T14:05:49.089Z,1.00
2023-03-10T14:07:10.647Z,1.10
2023-03-10T14:08:24.468Z,0.93
2023-03-10T14:09:27.660Z,0.88
2023-03-10T14:10:30.449Z,0.97
2023-03-10T14:11:36.990Z,0.87
2023-03-10T14:12:43.348Z,0.82
2023-03-10T14:13:45.646Z,0.94
2023-03-10T14:14:52.020Z,1.25
2023-03-10T14:15:55.342Z,0.87
2023-03-10T14:17:00.917Z,0.91
2023-03-10T14:18:18.798Z,0.84
2023-03-10T14:19:51.035Z,1.10
2023-03-10T14:20:54.145Z,0.89
2023-03-10T14:22:01.827Z,0.91
2023-03-10T14:23:28.038Z,1.01
2023-03-10T14:24:31.822Z,1.11
2023-03-10T14:25:33.977Z,1.31
2023-03-10T14:26:39.779Z,1.16
2023-03-10T14:27:45.719Z,1.12
2023-03-10T14:28:48.282Z,1.48
2023-03-10T14:29:55.564Z,1.24
2023-03-10T14:30:59.556Z,0.95
2023-03-10T14:32:01.882Z,0.94
2023-03-10T14:33:13.620Z,0.88
2023-03-10T14:34:15.852Z,0.81
2023-03-10T14:35:21.496Z,0.83
2023-03-10T14:37:52.034Z,0.77
2023-03-10T14:38:54.197Z,0.92